Flight Track Log - Related Links

Times and Time Zones

All times are in EST time to prevent confusion due to time zone crossing. See the N7545J flight status page for this flight to view local times or setup timezone preferences in your user account.

Time Position Orientation Groundspeed Altitude Reporting Facility
EST Latitude Longitude Course Direction KTS MPH feet Rate Location/Type
Wed 01:08:00 PM 33.9640 -85.7814 92° East  Level FlightAware Approximate
Wed 01:09:00 PM 33.9625 -85.7302 92° East  Level FlightAware Approximate
Wed 01:10:00 PM 33.9609 -85.6789 92° East  Level FlightAware Approximate
Wed 01:10:29 PM 33.9761 -85.7847 91° East 130 150 4,700  Level Atlanta Center
Wed 01:11:00 PM 33.9580 -85.6277 90° East  Level Estimated
Wed 01:11:29 PM 33.9744 -85.7397 93° East 125 144 5,000  Level Atlanta Center
Wed 01:12:00 PM 33.9573 -85.5764 91° East  Level FlightAware Approximate
Wed 01:12:29 PM 33.9708 -85.6969 96° East 125 144 5,100  Level Atlanta Center
Wed 01:13:29 PM 33.9717 -85.6494 89° East 125 144 5,100  Level Atlanta Center
Wed 01:14:29 PM 33.9722 -85.5994 89° East 136 157 5,100  Level Atlanta Center
Wed 01:15:29 PM 33.9708 -85.5492 92° East 142 163 5,100 -50 Level Atlanta Center
Wed 01:16:29 PM 33.9694 -85.4967 92° East 142 163 5,000 -50 Descending Atlanta Center
Wed 01:17:29 PM 33.9678 -85.4489 92° East 142 163 5,000  Level Atlanta Center
Wed 01:18:29 PM 33.9664 -85.3989 92° East 142 163 5,000  Level Atlanta Center
Wed 01:19:29 PM 33.9647 -85.3539 93° East 142 163 5,000  Level Atlanta Center
Wed 01:20:29 PM 33.9653 -85.3036 89° East 142 163 5,000 50 Level Atlanta Center
Wed 01:21:29 PM 33.9636 -85.2586 93° East 142 163 5,100 50 Climbing Atlanta Center
Wed 01:22:29 PM 33.9619 -85.2108 92° East 142 163 5,100  Level Atlanta Center
Wed 01:23:29 PM 33.9603 -85.1608 92° East 142 163 5,100 -50 Level Atlanta Center
Wed 01:24:29 PM 33.9586 -85.1108 92° East 142 163 5,000 -50 Descending Atlanta Center
Wed 01:25:29 PM 33.9569 -85.0606 92° East 142 163 5,000  Level Atlanta Center
Wed 01:26:29 PM 33.9553 -85.0181 93° East 142 163 5,000  Level Atlanta Center
Wed 01:27:29 PM 33.9536 -84.9703 92° East 142 163 5,000  Level Atlanta Center
Wed 01:28:29 PM 33.9539 -84.9228 90° East 137 158 5,000  Level Atlanta Center
Wed 01:30:25 PM 33.9500 -84.8333 93° East 149 171 5,000  Level Atlanta TRACON
Wed 01:31:31 PM 33.9500 -84.7667 90° East 150 173 5,000  Level Atlanta TRACON
Wed 01:32:25 PM 33.9333 -84.7333 121° Southeast 153 176 5,000  Level Atlanta TRACON
Wed 01:33:31 PM 33.9333 -84.6667 90° East 154 177 5,000  Level Atlanta TRACON
Wed 01:34:25 PM 33.9167 -84.6333 121° Southeast 152 175 5,000 -53 Level Atlanta TRACON
Wed 01:35:25 PM 33.9167 -84.5833 90° East 151 174 4,900 -50 Descending Atlanta TRACON
Wed 01:36:25 PM 33.9000 -84.5333 112° Southeast 153 176 4,900 -50 Level Atlanta TRACON
Wed 01:37:25 PM 33.9000 -84.4833 90° East 150 173 4,800 -50 Descending Atlanta TRACON
Wed 01:38:25 PM 33.8667 -84.4500 140° Southeast 140 161 4,800 50 Level Atlanta TRACON
Wed 01:39:25 PM 33.8333 -84.4167 140° Southeast 135 155 4,900 -238 Climbing Atlanta TRACON
Wed 01:40:31 PM 33.8167 -84.3833 121° Southeast 132 152 4,300 -810 Descending Atlanta TRACON
Wed 01:41:31 PM 33.8167 -84.3500 90° East 93 107 3,200 -947 Descending Atlanta TRACON
Wed 01:42:25 PM 33.8333 -84.3333 40° Northeast 111 128 2,500 -842 Descending Atlanta TRACON
Wed 01:43:25 PM 33.8500 -84.3167 40° Northeast 89 102 1,600 -900 Descending Atlanta TRACON
Wed 01:45:00 PM 33.8667 -84.3000 90° East  Level FlightAware Approximate
Wed 01:52:00 PM 33.8756 -84.3020 90° East  Level Estimated

Login

Don't have an account? Register now (free) for customized features, flight alerts, and more!